createdAt,value
2022-10-06T00:00:50.638Z,11.66
2022-10-06T00:03:17.600Z,11.65
2022-10-06T00:05:44.427Z,11.63
2022-10-06T00:08:11.715Z,11.59
2022-10-06T00:10:40.434Z,11.61
2022-10-06T00:13:07.534Z,11.58
2022-10-06T00:15:34.887Z,11.61
2022-10-06T00:18:02.717Z,11.55
2022-10-06T00:20:29.995Z,11.54
2022-10-06T00:22:59.851Z,11.44
2022-10-06T00:25:28.225Z,11.36
2022-10-06T00:27:55.763Z,11.29
2022-10-06T00:30:25.619Z,11.24
2022-10-06T00:32:53.808Z,11.14
2022-10-06T00:35:21.692Z,11.08
2022-10-06T00:37:48.916Z,11.09
2022-10-06T00:40:16.079Z,11.05
2022-10-06T00:42:55.132Z,11.01
2022-10-06T00:45:43.002Z,10.95
2022-10-06T00:48:26.323Z,10.99
2022-10-06T00:50:55.636Z,11.00
2022-10-06T00:53:24.113Z,11.02
2022-10-06T00:55:50.941Z,11.04
2022-10-06T00:58:17.830Z,11.09
2022-10-06T01:00:45.825Z,11.07
2022-10-06T01:03:19.133Z,11.06
2022-10-06T01:05:51.500Z,11.01
2022-10-06T01:08:19.135Z,11.01
2022-10-06T01:10:45.917Z,10.96
2022-10-06T01:13:14.291Z,10.93
2022-10-06T01:15:50.533Z,10.92
2022-10-06T01:18:20.404Z,10.93
2022-10-06T01:20:53.466Z,10.96
2022-10-06T01:23:20.734Z,10.97
2022-10-06T01:25:48.070Z,11.00
2022-10-06T01:28:15.127Z,11.04
2022-10-06T01:30:53.736Z,11.08
2022-10-06T01:33:23.069Z,11.10
2022-10-06T01:35:52.529Z,11.13
2022-10-06T01:38:20.257Z,11.16
2022-10-06T01:40:52.859Z,11.17
2022-10-06T01:43:19.737Z,11.18
2022-10-06T01:45:53.883Z,11.21
2022-10-06T01:48:20.803Z,11.16
2022-10-06T01:50:47.901Z,11.18
2022-10-06T01:53:14.817Z,11.18
2022-10-06T01:55:41.652Z,11.17
2022-10-06T01:58:10.169Z,11.18
2022-10-06T02:00:37.870Z,11.13
2022-10-06T02:03:05.027Z,11.11
2022-10-06T02:05:32.503Z,11.08
2022-10-06T02:08:00.530Z,11.09
2022-10-06T02:10:27.350Z,11.07
2022-10-06T02:12:54.828Z,11.06
2022-10-06T02:15:22.826Z,11.04
2022-10-06T02:17:51.035Z,11.01
2022-10-06T02:20:17.948Z,10.90
2022-10-06T02:22:44.704Z,10.79
2022-10-06T02:25:12.551Z,10.75
2022-10-06T02:27:39.906Z,10.61
2022-10-06T02:30:09.095Z,10.54
2022-10-06T02:32:39.052Z,10.47
2022-10-06T02:35:07.604Z,10.44
2022-10-06T02:37:35.138Z,10.44
2022-10-06T02:40:02.866Z,10.48
2022-10-06T02:42:31.193Z,10.52
2022-10-06T02:44:59.040Z,10.52
2022-10-06T02:47:25.997Z,10.52
2022-10-06T02:49:53.665Z,10.53
2022-10-06T02:52:20.393Z,10.53
2022-10-06T02:54:48.312Z,10.50
2022-10-06T02:57:15.793Z,10.52
2022-10-06T02:59:43.046Z,10.49
2022-10-06T03:02:10.412Z,10.48
2022-10-06T03:04:37.265Z,10.45
2022-10-06T03:07:05.000Z,10.45
2022-10-06T03:09:36.069Z,10.45
2022-10-06T03:12:03.021Z,10.47
2022-10-06T03:14:39.255Z,10.47
2022-10-06T03:17:10.165Z,10.44
2022-10-06T03:19:42.775Z,10.43
2022-10-06T03:22:10.713Z,10.34
2022-10-06T03:24:49.986Z,10.30
2022-10-06T03:27:16.772Z,10.21
2022-10-06T03:29:43.641Z,10.11
2022-10-06T03:32:10.474Z,10.00
2022-10-06T03:34:37.949Z,9.90
2022-10-06T03:37:07.817Z,9.75
2022-10-06T03:39:34.629Z,9.66
2022-10-06T03:42:01.837Z,9.57
2022-10-06T03:44:28.557Z,9.42
2022-10-06T03:46:55.425Z,9.29
2022-10-06T03:49:22.281Z,9.23
2022-10-06T03:51:49.120Z,9.15
2022-10-06T03:54:20.735Z,9.09
2022-10-06T03:56:49.795Z,9.02
2022-10-06T03:59:19.496Z,8.89
2022-10-06T04:01:48.827Z,8.86
2022-10-06T04:04:28.690Z,8.78
2022-10-06T04:07:00.734Z,8.65
2022-10-06T04:09:27.902Z,8.54
2022-10-06T04:11:55.765Z,8.45
2022-10-06T04:14:22.658Z,8.39
2022-10-06T04:16:51.163Z,8.32
2022-10-06T04:19:25.439Z,8.31
2022-10-06T04:21:54.591Z,8.29
2022-10-06T04:24:23.670Z,8.29
2022-10-06T04:26:52.411Z,8.29
2022-10-06T04:29:20.640Z,8.31
2022-10-06T04:31:52.342Z,8.34
2022-10-06T04:34:25.294Z,8.40
2022-10-06T04:36:52.161Z,8.61
2022-10-06T04:39:19.090Z,8.85
2022-10-06T04:41:47.370Z,8.98
2022-10-06T04:44:28.525Z,8.99
2022-10-06T04:46:58.292Z,9.04
2022-10-06T04:49:25.399Z,9.22
2022-10-06T04:51:53.473Z,9.50
2022-10-06T04:54:21.119Z,9.87
2022-10-06T04:56:51.556Z,10.33
2022-10-06T04:59:41.475Z,10.68
2022-10-06T05:02:09.308Z,10.80
2022-10-06T05:04:36.061Z,10.79
2022-10-06T05:07:03.020Z,10.78
2022-10-06T05:09:30.520Z,11.07
2022-10-06T05:11:58.070Z,11.56
2022-10-06T05:14:25.491Z,12.13
2022-10-06T05:16:52.609Z,12.47
2022-10-06T05:19:19.476Z,12.84
2022-10-06T05:21:47.331Z,13.06
2022-10-06T05:24:19.633Z,13.41
2022-10-06T05:26:46.566Z,13.65
2022-10-06T05:29:15.358Z,13.87
2022-10-06T05:31:43.681Z,14.03
2022-10-06T05:34:11.866Z,14.20
2022-10-06T05:36:39.257Z,14.36
2022-10-06T05:39:07.532Z,14.62
2022-10-06T05:41:39.723Z,15.11
2022-10-06T05:44:09.322Z,15.57
2022-10-06T05:46:38.438Z,15.55
2022-10-06T05:49:12.921Z,15.93
2022-10-06T05:51:47.737Z,16.19
2022-10-06T05:54:26.880Z,16.28
2022-10-06T05:56:53.812Z,16.64
2022-10-06T05:59:20.796Z,17.06
2022-10-06T06:01:47.878Z,17.39
2022-10-06T06:04:34.864Z,17.59
2022-10-06T06:07:01.687Z,17.56
2022-10-06T06:09:29.028Z,17.56
2022-10-06T06:12:00.555Z,17.79
2022-10-06T06:15:11.763Z,18.09
2022-10-06T06:17:43.638Z,18.31
2022-10-06T06:20:10.605Z,18.66
2022-10-06T06:22:37.557Z,18.70
2022-10-06T06:25:06.014Z,18.98
2022-10-06T06:27:32.834Z,19.16
2022-10-06T06:29:59.721Z,19.35
2022-10-06T06:32:28.006Z,19.69
2022-10-06T06:34:55.639Z,19.79
2022-10-06T06:37:22.398Z,20.05
2022-10-06T06:39:49.378Z,19.94
2022-10-06T06:42:16.769Z,20.16
2022-10-06T06:44:57.940Z,20.50
2022-10-06T06:47:35.600Z,21.10
2022-10-06T06:50:10.159Z,21.38
2022-10-06T06:52:38.398Z,21.53
2022-10-06T06:55:07.235Z,21.85
2022-10-06T06:57:34.171Z,22.10
2022-10-06T07:00:02.705Z,22.44
2022-10-06T07:02:30.934Z,22.48
2022-10-06T07:04:57.947Z,22.55
2022-10-06T07:07:24.765Z,22.67
2022-10-06T07:09:51.907Z,22.68
2022-10-06T07:12:21.065Z,23.00
2022-10-06T07:15:11.784Z,22.81
2022-10-06T07:17:59.593Z,23.06
2022-10-06T07:20:45.070Z,23.14
2022-10-06T07:23:36.071Z,23.33
2022-10-06T07:26:05.706Z,23.78
2022-10-06T07:28:32.725Z,23.91
2022-10-06T07:31:01.327Z,23.82
2022-10-06T07:33:32.411Z,23.87
2022-10-06T07:36:02.273Z,23.89
2022-10-06T07:38:29.868Z,24.06
2022-10-06T07:43:48.906Z,24.43
2022-10-06T07:46:16.533Z,24.53
2022-10-06T07:49:06.533Z,24.70
2022-10-06T07:51:33.303Z,25.00
2022-10-06T07:54:02.682Z,24.86
2022-10-06T07:56:39.063Z,24.99
2022-10-06T07:59:05.894Z,25.06
2022-10-06T08:01:32.784Z,25.11
2022-10-06T08:03:59.678Z,25.24
2022-10-06T08:06:26.489Z,25.84
2022-10-06T08:08:53.693Z,26.47
2022-10-06T08:11:21.757Z,26.81
2022-10-06T08:13:49.087Z,27.07
2022-10-06T08:16:21.636Z,27.12
2022-10-06T08:18:51.067Z,27.49
2022-10-06T08:21:20.970Z,27.84
2022-10-06T08:23:49.400Z,28.32
2022-10-06T08:26:17.623Z,28.86
2022-10-06T08:28:49.447Z,28.98
2022-10-06T08:31:17.774Z,28.76
2022-10-06T08:33:46.093Z,28.67
2022-10-06T08:36:18.555Z,28.99
2022-10-06T08:38:50.522Z,28.58
2022-10-06T08:41:26.356Z,29.10
2022-10-06T08:44:07.597Z,28.70
2022-10-06T08:46:43.024Z,28.69
2022-10-06T08:49:20.498Z,27.61
2022-10-06T08:52:08.854Z,27.44
2022-10-06T08:54:58.441Z,26.77
2022-10-06T08:57:47.098Z,26.34
2022-10-06T09:00:21.119Z,26.73
2022-10-06T09:02:50.319Z,26.53
2022-10-06T09:05:25.563Z,26.20
2022-10-06T09:08:12.455Z,26.83
2022-10-06T09:10:58.197Z,26.82
2022-10-06T09:13:30.140Z,26.88
2022-10-06T09:16:02.225Z,27.24
2022-10-06T09:18:49.835Z,27.69
2022-10-06T09:21:25.734Z,28.20
2022-10-06T09:24:05.935Z,27.68
2022-10-06T09:26:33.862Z,28.35
2022-10-06T09:29:00.729Z,27.86
2022-10-06T09:31:29.695Z,27.57
2022-10-06T09:34:04.567Z,27.92
2022-10-06T09:36:32.163Z,28.11
2022-10-06T09:39:00.222Z,28.95
2022-10-06T09:41:26.873Z,28.65
2022-10-06T09:43:57.523Z,28.99
2022-10-06T09:46:32.333Z,28.67
2022-10-06T09:49:16.397Z,29.56
2022-10-06T09:52:15.360Z,29.95
2022-10-06T09:54:43.836Z,29.71
2022-10-06T09:57:16.205Z,30.02
2022-10-06T09:59:45.464Z,30.55
2022-10-06T10:02:40.910Z,31.13
2022-10-06T10:05:20.008Z,31.46
2022-10-06T10:08:00.316Z,30.91
2022-10-06T10:10:27.241Z,31.23
2022-10-06T10:12:56.216Z,31.49
2022-10-06T10:15:26.456Z,31.41
2022-10-06T10:17:56.611Z,31.76
2022-10-06T10:20:28.372Z,31.85
2022-10-06T10:22:58.421Z,32.04
2022-10-06T10:25:33.915Z,31.70
2022-10-06T10:28:17.433Z,31.64
2022-10-06T10:30:56.772Z,31.79
2022-10-06T10:33:53.881Z,31.69
2022-10-06T10:36:39.482Z,31.86
2022-10-06T10:39:12.728Z,31.65
2022-10-06T10:41:52.438Z,31.55
2022-10-06T10:44:34.104Z,31.09
2022-10-06T10:47:18.980Z,31.11
2022-10-06T10:49:53.375Z,31.24
2022-10-06T10:52:27.478Z,31.10
2022-10-06T10:55:11.708Z,31.13
2022-10-06T10:57:41.300Z,30.85
2022-10-06T11:00:21.177Z,30.52
2022-10-06T11:02:48.494Z,30.33
2022-10-06T11:05:36.291Z,30.46
2022-10-06T11:08:25.007Z,30.24
2022-10-06T11:10:59.325Z,30.17
2022-10-06T11:13:37.962Z,30.12
2022-10-06T11:16:04.705Z,30.30
2022-10-06T11:18:48.806Z,30.58
2022-10-06T11:21:27.974Z,30.72
2022-10-06T11:24:02.107Z,30.82
2022-10-06T11:26:49.052Z,30.86
2022-10-06T11:29:23.135Z,30.81
2022-10-06T11:32:04.483Z,30.84
2022-10-06T11:34:31.305Z,30.77
2022-10-06T11:37:16.627Z,30.55
2022-10-06T11:40:17.157Z,30.43
2022-10-06T11:43:00.636Z,30.09
2022-10-06T11:45:38.275Z,29.91
2022-10-06T11:48:07.740Z,30.06
2022-10-06T11:50:36.553Z,30.21
2022-10-06T11:53:05.757Z,30.26
2022-10-06T11:55:32.947Z,30.32
2022-10-06T11:58:23.454Z,30.45
2022-10-06T12:00:54.718Z,30.41
2022-10-06T12:03:31.184Z,30.51
2022-10-06T12:05:57.941Z,30.58
2022-10-06T12:08:39.497Z,30.51
2022-10-06T12:11:42.338Z,30.23
2022-10-06T12:17:23.944Z,29.92
2022-10-06T12:20:00.701Z,29.91
2022-10-06T12:22:38.869Z,29.90
2022-10-06T12:25:18.204Z,29.50
2022-10-06T12:27:53.956Z,28.95
2022-10-06T12:30:30.892Z,28.10
2022-10-06T12:32:59.342Z,27.35
2022-10-06T12:35:33.627Z,26.61
2022-10-06T12:38:05.934Z,25.88
2022-10-06T12:40:40.419Z,25.25
2022-10-06T12:43:22.534Z,24.51
2022-10-06T12:46:19.564Z,23.97
2022-10-06T12:49:01.514Z,23.57
2022-10-06T12:51:40.520Z,23.28
2022-10-06T12:54:50.782Z,22.96
2022-10-06T12:57:20.120Z,22.59
2022-10-06T12:59:49.565Z,22.33
2022-10-06T13:02:22.482Z,22.19
2022-10-06T13:04:54.584Z,22.10
2022-10-06T13:07:31.882Z,21.94
2022-10-06T13:10:13.890Z,21.65
2022-10-06T13:12:47.171Z,21.48
2022-10-06T13:15:29.756Z,21.41
2022-10-06T13:18:00.141Z,21.28
2022-10-06T13:20:42.353Z,21.28
2022-10-06T13:23:25.740Z,21.22
2022-10-06T13:25:52.444Z,21.14
2022-10-06T13:28:28.422Z,21.09
2022-10-06T13:30:58.568Z,21.08
2022-10-06T13:33:40.386Z,21.08
2022-10-06T13:36:09.037Z,20.96
2022-10-06T13:38:37.940Z,20.85
2022-10-06T13:41:05.232Z,20.74
2022-10-06T13:43:36.190Z,20.72
2022-10-06T13:46:15.004Z,20.65
2022-10-06T13:49:03.636Z,20.63
2022-10-06T13:51:32.315Z,20.53
2022-10-06T13:54:03.402Z,20.50
2022-10-06T13:56:40.082Z,20.45
2022-10-06T13:59:31.183Z,20.46
2022-10-06T14:02:02.503Z,20.36
2022-10-06T14:04:29.401Z,20.37
2022-10-06T14:07:00.820Z,20.36
2022-10-06T14:09:31.460Z,20.28
2022-10-06T14:12:27.738Z,20.31
2022-10-06T14:14:54.579Z,20.22
2022-10-06T14:17:24.348Z,20.13
2022-10-06T14:19:51.459Z,20.01
2022-10-06T14:22:32.250Z,19.98
2022-10-06T14:24:59.071Z,19.93
2022-10-06T14:27:25.844Z,19.88
2022-10-06T14:29:52.616Z,19.78
2022-10-06T14:32:20.309Z,19.69
2022-10-06T14:34:47.298Z,19.65
2022-10-06T14:37:16.990Z,19.55
2022-10-06T14:39:45.507Z,19.51
2022-10-06T14:42:14.960Z,19.43
2022-10-06T14:44:43.301Z,19.28
2022-10-06T14:47:10.116Z,19.15
2022-10-06T14:49:37.895Z,19.05
2022-10-06T14:52:05.615Z,18.94
2022-10-06T14:54:34.444Z,18.81
2022-10-06T14:57:01.267Z,18.66
2022-10-06T14:59:28.502Z,18.55
2022-10-06T15:01:55.351Z,18.43
2022-10-06T15:04:25.016Z,18.31
2022-10-06T15:07:10.041Z,18.14
2022-10-06T15:09:36.842Z,17.97
2022-10-06T15:12:04.104Z,17.87
2022-10-06T15:14:31.168Z,17.74
2022-10-06T15:17:00.677Z,17.61
2022-10-06T15:19:27.673Z,17.44
2022-10-06T15:21:54.554Z,17.29
2022-10-06T15:24:21.403Z,17.15
2022-10-06T15:27:07.331Z,17.06
2022-10-06T15:29:35.207Z,16.94
2022-10-06T15:32:03.787Z,16.78
2022-10-06T15:34:33.467Z,16.68
2022-10-06T15:37:01.007Z,16.63
2022-10-06T15:39:30.598Z,16.55
2022-10-06T15:41:59.496Z,16.48
2022-10-06T15:44:26.602Z,16.44
2022-10-06T15:46:56.904Z,16.36
2022-10-06T15:49:29.698Z,16.28
2022-10-06T15:51:57.343Z,16.17
2022-10-06T15:54:26.204Z,16.03
2022-10-06T15:56:55.059Z,15.90
2022-10-06T15:59:23.955Z,15.79
2022-10-06T16:01:59.878Z,15.73
2022-10-06T16:04:40.128Z,15.70
2022-10-06T16:07:18.339Z,15.64
2022-10-06T16:09:47.788Z,15.64
2022-10-06T16:12:20.301Z,15.58
2022-10-06T16:14:47.562Z,15.52
2022-10-06T16:17:14.815Z,15.42
2022-10-06T16:19:42.016Z,15.35
2022-10-06T16:22:11.470Z,15.29
2022-10-06T16:24:38.311Z,15.25
2022-10-06T16:27:05.583Z,15.23
2022-10-06T16:29:32.408Z,15.20
2022-10-06T16:31:59.339Z,15.17
2022-10-06T16:34:26.588Z,15.12
2022-10-06T16:36:53.552Z,15.04
2022-10-06T16:39:22.322Z,15.00
2022-10-06T16:41:50.065Z,14.98
2022-10-06T16:44:17.851Z,14.93
2022-10-06T16:46:45.020Z,14.93
2022-10-06T16:49:12.019Z,14.90
2022-10-06T16:51:43.924Z,14.87
2022-10-06T16:54:12.544Z,14.85
2022-10-06T16:56:44.713Z,14.77
2022-10-06T16:59:13.143Z,14.71
2022-10-06T17:01:40.688Z,14.60
2022-10-06T17:04:16.999Z,14.51
2022-10-06T17:06:45.406Z,14.39
2022-10-06T17:09:17.925Z,14.30
2022-10-06T17:11:47.567Z,14.20
2022-10-06T17:14:14.566Z,14.09
2022-10-06T17:16:44.965Z,14.02
2022-10-06T17:19:16.485Z,13.96
2022-10-06T17:21:46.708Z,13.88
2022-10-06T17:24:17.823Z,13.81
2022-10-06T17:26:47.360Z,13.76
2022-10-06T17:29:18.342Z,13.70
2022-10-06T17:31:46.475Z,13.64
2022-10-06T17:34:21.080Z,13.60
2022-10-06T17:36:50.973Z,13.56
2022-10-06T17:39:20.867Z,13.51
2022-10-06T17:41:49.003Z,13.50
2022-10-06T17:44:26.046Z,13.45
2022-10-06T17:46:58.739Z,13.42
2022-10-06T17:49:26.861Z,13.43
2022-10-06T17:51:55.018Z,13.52
2022-10-06T17:54:24.276Z,13.61
2022-10-06T17:56:54.242Z,13.73
2022-10-06T17:59:23.894Z,13.83
2022-10-06T18:01:51.874Z,13.97
2022-10-06T18:04:19.108Z,14.09
2022-10-06T18:06:47.033Z,14.18
2022-10-06T18:09:14.726Z,14.24
2022-10-06T18:11:44.007Z,14.26
2022-10-06T18:14:12.385Z,14.26
2022-10-06T18:16:53.639Z,14.20
2022-10-06T18:19:26.493Z,14.12
2022-10-06T18:22:01.550Z,14.03
2022-10-06T18:24:30.377Z,13.93
2022-10-06T18:27:00.115Z,13.89
2022-10-06T18:29:32.586Z,13.80
2022-10-06T18:32:23.578Z,13.71
2022-10-06T18:37:33.723Z,13.51
2022-10-06T18:40:02.535Z,13.46
2022-10-06T18:42:29.691Z,13.40
2022-10-06T18:45:15.039Z,13.34
2022-10-06T18:48:20.435Z,13.23
2022-10-06T18:50:58.942Z,13.14
2022-10-06T18:53:25.656Z,13.07
2022-10-06T18:55:52.530Z,13.01
2022-10-06T18:58:19.212Z,12.96
2022-10-06T19:00:46.998Z,12.91
2022-10-06T19:03:13.780Z,12.92
2022-10-06T19:05:51.122Z,12.91
2022-10-06T19:08:17.987Z,12.90
2022-10-06T19:11:04.794Z,12.90
2022-10-06T19:13:31.720Z,12.87
2022-10-06T19:16:00.034Z,12.85
2022-10-06T19:21:31.444Z,12.88
2022-10-06T19:24:01.060Z,12.88
2022-10-06T19:26:28.146Z,12.88
2022-10-06T19:28:55.028Z,12.88
2022-10-06T19:31:22.010Z,12.90
2022-10-06T19:33:48.895Z,12.87
2022-10-06T19:36:17.067Z,12.82
2022-10-06T19:38:45.551Z,12.77
2022-10-06T19:41:31.254Z,12.74
2022-10-06T19:43:58.160Z,12.71
2022-10-06T19:46:25.190Z,12.67
2022-10-06T19:48:56.612Z,12.64
2022-10-06T19:51:24.392Z,12.60
2022-10-06T19:53:51.843Z,12.58
2022-10-06T19:56:20.362Z,12.55
2022-10-06T19:58:47.294Z,12.53
2022-10-06T20:01:14.150Z,12.52
2022-10-06T20:03:41.618Z,12.54
2022-10-06T20:06:14.129Z,12.56
2022-10-06T20:08:41.854Z,12.58
2022-10-06T20:11:13.015Z,12.59
2022-10-06T20:13:41.874Z,12.59
2022-10-06T20:16:11.917Z,12.62
2022-10-06T20:18:41.287Z,12.63
2022-10-06T20:21:16.588Z,12.66
2022-10-06T20:23:50.507Z,12.68
2022-10-06T20:26:20.618Z,12.69
2022-10-06T20:28:48.319Z,12.71
2022-10-06T20:31:19.187Z,12.71
2022-10-06T20:33:46.519Z,12.73
2022-10-06T20:36:13.541Z,12.71
2022-10-06T20:38:59.065Z,12.71
2022-10-06T20:41:25.967Z,12.70
2022-10-06T20:43:54.112Z,12.71
2022-10-06T20:46:21.601Z,12.74
2022-10-06T20:48:50.216Z,12.75
2022-10-06T20:51:18.318Z,12.74
2022-10-06T20:53:45.266Z,12.76
2022-10-06T20:56:12.546Z,12.77
2022-10-06T20:58:39.758Z,12.74
2022-10-06T21:01:10.681Z,12.77
2022-10-06T21:03:43.626Z,12.79
2022-10-06T21:06:14.484Z,12.80
2022-10-06T21:08:44.040Z,12.81
2022-10-06T21:11:13.010Z,12.87
2022-10-06T21:13:40.742Z,12.93
2022-10-06T21:16:07.767Z,13.02
2022-10-06T21:18:34.883Z,13.14
2022-10-06T21:21:04.867Z,13.24
2022-10-06T21:23:37.126Z,13.38
2022-10-06T21:26:07.323Z,13.48
2022-10-06T21:28:38.592Z,13.63
2022-10-06T21:31:16.917Z,13.75
2022-10-06T21:33:45.686Z,13.84
2022-10-06T21:36:17.931Z,13.95
2022-10-06T21:38:47.824Z,14.05
2022-10-06T21:41:32.512Z,14.12
2022-10-06T21:44:04.645Z,14.21
2022-10-06T21:46:34.559Z,14.26
2022-10-06T21:49:02.806Z,14.30
2022-10-06T21:51:30.940Z,14.34
2022-10-06T21:53:59.729Z,14.37
2022-10-06T21:56:27.975Z,14.38
2022-10-06T21:58:55.945Z,14.38
2022-10-06T22:01:31.072Z,14.38
2022-10-06T22:04:00.224Z,14.39
2022-10-06T22:06:28.598Z,14.41
2022-10-06T22:08:55.997Z,14.45
2022-10-06T22:11:25.562Z,14.48
2022-10-06T22:13:58.113Z,14.53
2022-10-06T22:16:27.879Z,14.53
2022-10-06T22:18:55.110Z,14.56
2022-10-06T22:21:23.100Z,14.60
2022-10-06T22:24:01.176Z,14.62
2022-10-06T22:26:30.307Z,14.63
2022-10-06T22:28:58.489Z,14.64
2022-10-06T22:31:26.847Z,14.66
2022-10-06T22:33:59.181Z,14.65
2022-10-06T22:36:27.748Z,14.63
2022-10-06T22:38:55.690Z,14.60
2022-10-06T22:41:23.212Z,14.50
2022-10-06T22:43:57.408Z,14.38
2022-10-06T22:46:28.144Z,14.23
2022-10-06T22:48:55.336Z,14.11
2022-10-06T22:51:22.104Z,13.99
2022-10-06T22:53:57.648Z,13.89
2022-10-06T22:56:25.369Z,13.75
2022-10-06T22:58:52.168Z,13.65
2022-10-06T23:01:19.712Z,13.55
2022-10-06T23:03:47.448Z,13.48
2022-10-06T23:06:15.902Z,13.36
2022-10-06T23:08:42.701Z,13.27
2022-10-06T23:11:13.062Z,13.20
2022-10-06T23:13:40.826Z,13.10
2022-10-06T23:16:10.152Z,13.03
2022-10-06T23:18:39.476Z,12.97
2022-10-06T23:21:10.954Z,12.89
2022-10-06T23:23:37.953Z,12.82
2022-10-06T23:26:10.823Z,12.76
2022-10-06T23:28:38.425Z,12.68
2022-10-06T23:31:06.857Z,12.65
2022-10-06T23:33:34.545Z,12.60
2022-10-06T23:36:09.854Z,12.54
2022-10-06T23:38:38.213Z,12.48
2022-10-06T23:41:06.421Z,12.42
2022-10-06T23:43:33.807Z,12.36
2022-10-06T23:46:00.648Z,12.30
2022-10-06T23:48:27.476Z,12.26
2022-10-06T23:51:05.149Z,12.23
2022-10-06T23:53:32.411Z,12.19
2022-10-06T23:55:59.480Z,12.13
2022-10-06T23:58:26.882Z,12.10
